Skip Navigation Links Skip Navigation Links

Current Weather

Needles, Calif.

For information only: do not use for flight planning or navigation.
Latest weather
Observation time Sunday, September 20, 2020 4:56 AM PDT
Local time Sunday, September 20, 2020 6:02 AM PDT
Flight conditions Visual Meteorological Conditions
Winds
Wind direction West (270°)
Wind speed 7 mph
Visibility 10 mi.
Sky condition
Ceiling unlimited
Sky clear
Temperature 81°F
Dewpoint 39°F
Altimeter 29.81 in.Hg
Pressure change last 3 hours-0.03 in.Hg
Pressure rising more quickly
Derived measurements
Relative humidity 22%
Heat index 81°F
Density altitude 2638 ft.
Sea-level pressure 29.70 in.Hg
Climate data
Temperature minimum, last 6 hours 81°F
Temperature maximum, last 6 hours 93°F
Remarks
Fully automated report.
Automated weather observing station with precipitation discriminator.
METAR KEED 201156Z AUTO 27006KT 10SM CLR 27/04 A2981 RMK AO2 SLP057 T02720039 10339 20272 53009

Settings

Location code

InnerDrive.Weather 4.0.6770.0 Release CLR 4.0.30319.42000
Copyright ©2018 Inner Drive Technology. All rights reserved. Portions Copyright ©1986-2018 David Braverman.

Find weather

Site navigation


Skip Navigation Links

Place info

Page info

PayPal - The safer, easier way to pay online!

Return home.

Copyright ©2020 Inner Drive Technology. Purveyors of fine, hand-crafted computer software. Page printed 2020-09-20T13:02:34 UTC.